sensor_id;sensor_type;location;lat;lon;timestamp;P1;durP1;ratioP1;P2;durP2;ratioP2
64868;SDS011;51349;52.424;10.840;2023-12-07T00:04:09;33.53;;;17.30;;
64868;SDS011;51349;52.424;10.840;2023-12-07T00:09:10;29.50;;;15.93;;
64868;SDS011;51349;52.424;10.840;2023-12-07T00:14:11;29.27;;;16.17;;
64868;SDS011;51349;52.424;10.840;2023-12-07T00:19:11;30.13;;;15.47;;
64868;SDS011;51349;52.424;10.840;2023-12-07T00:24:12;30.40;;;16.23;;
64868;SDS011;51349;52.424;10.840;2023-12-07T00:29:13;26.73;;;15.27;;
64868;SDS011;51349;52.424;10.840;2023-12-07T00:34:13;29.03;;;16.30;;
64868;SDS011;51349;52.424;10.840;2023-12-07T00:39:14;31.00;;;16.07;;
64868;SDS011;51349;52.424;10.840;2023-12-07T00:44:16;26.00;;;15.57;;
64868;SDS011;51349;52.424;10.840;2023-12-07T00:49:17;27.07;;;15.07;;
64868;SDS011;51349;52.424;10.840;2023-12-07T01:00:11;29.80;;;16.17;;
64868;SDS011;51349;52.424;10.840;2023-12-07T01:05:13;29.83;;;17.60;;
64868;SDS011;51349;52.424;10.840;2023-12-07T01:10:13;29.03;;;16.13;;
64868;SDS011;51349;52.424;10.840;2023-12-07T01:15:14;31.03;;;16.77;;
64868;SDS011;51349;52.424;10.840;2023-12-07T01:20:15;29.57;;;15.77;;
64868;SDS011;51349;52.424;10.840;2023-12-07T01:25:17;33.20;;;15.90;;
64868;SDS011;51349;52.424;10.840;2023-12-07T01:30:21;33.20;;;16.40;;
64868;SDS011;51349;52.424;10.840;2023-12-07T01:35:22;33.57;;;16.20;;
64868;SDS011;51349;52.424;10.840;2023-12-07T01:40:23;35.03;;;16.87;;
64868;SDS011;51349;52.424;10.840;2023-12-07T01:45:23;32.70;;;17.10;;
64868;SDS011;51349;52.424;10.840;2023-12-07T01:50:24;31.97;;;16.20;;
64868;SDS011;51349;52.424;10.840;2023-12-07T01:55:26;32.30;;;15.00;;
64868;SDS011;51349;52.424;10.840;2023-12-07T02:00:28;33.30;;;16.47;;
64868;SDS011;51349;52.424;10.840;2023-12-07T02:05:29;32.00;;;16.50;;
64868;SDS011;51349;52.424;10.840;2023-12-07T02:10:31;26.23;;;14.87;;
64868;SDS011;51349;52.424;10.840;2023-12-07T02:15:32;25.40;;;15.37;;
64868;SDS011;51349;52.424;10.840;2023-12-07T02:20:37;26.27;;;14.63;;
64868;SDS011;51349;52.424;10.840;2023-12-07T02:31:25;28.13;;;14.93;;
64868;SDS011;51349;52.424;10.840;2023-12-07T02:36:27;28.50;;;15.07;;
64868;SDS011;51349;52.424;10.840;2023-12-07T02:41:30;30.07;;;15.40;;
64868;SDS011;51349;52.424;10.840;2023-12-07T02:46:32;28.77;;;15.20;;
64868;SDS011;51349;52.424;10.840;2023-12-07T02:51:33;26.90;;;14.77;;
64868;SDS011;51349;52.424;10.840;2023-12-07T02:56:34;29.00;;;16.53;;
64868;SDS011;51349;52.424;10.840;2023-12-07T03:01:35;31.30;;;15.13;;
64868;SDS011;51349;52.424;10.840;2023-12-07T03:06:36;27.80;;;15.87;;
64868;SDS011;51349;52.424;10.840;2023-12-07T03:11:37;30.20;;;16.53;;
64868;SDS011;51349;52.424;10.840;2023-12-07T03:16:38;31.10;;;16.90;;
64868;SDS011;51349;52.424;10.840;2023-12-07T03:21:39;28.17;;;16.47;;
64868;SDS011;51349;52.424;10.840;2023-12-07T03:26:40;26.77;;;15.73;;
64868;SDS011;51349;52.424;10.840;2023-12-07T03:31:41;29.77;;;16.77;;
64868;SDS011;51349;52.424;10.840;2023-12-07T03:36:44;34.77;;;18.00;;
64868;SDS011;51349;52.424;10.840;2023-12-07T03:41:46;34.33;;;18.77;;
64868;SDS011;51349;52.424;10.840;2023-12-07T03:46:47;32.40;;;17.50;;
64868;SDS011;51349;52.424;10.840;2023-12-07T03:51:47;36.97;;;19.37;;
64868;SDS011;51349;52.424;10.840;2023-12-07T03:56:48;31.63;;;17.63;;
64868;SDS011;51349;52.424;10.840;2023-12-07T04:01:50;37.10;;;19.93;;
64868;SDS011;51349;52.424;10.840;2023-12-07T04:06:51;37.47;;;20.23;;
64868;SDS011;51349;52.424;10.840;2023-12-07T04:11:51;36.03;;;19.53;;
64868;SDS011;51349;52.424;10.840;2023-12-07T04:16:52;37.13;;;20.90;;
64868;SDS011;51349;52.424;10.840;2023-12-07T04:21:53;33.00;;;19.53;;
64868;SDS011;51349;52.424;10.840;2023-12-07T04:26:54;33.57;;;18.10;;
64868;SDS011;51349;52.424;10.840;2023-12-07T04:31:55;36.37;;;18.30;;
64868;SDS011;51349;52.424;10.840;2023-12-07T04:36:56;31.80;;;18.03;;
64868;SDS011;51349;52.424;10.840;2023-12-07T04:41:56;31.90;;;17.77;;
64868;SDS011;51349;52.424;10.840;2023-12-07T04:46:57;34.87;;;18.50;;
64868;SDS011;51349;52.424;10.840;2023-12-07T04:51:58;36.10;;;18.73;;
64868;SDS011;51349;52.424;10.840;2023-12-07T04:56:58;26.03;;;16.00;;
64868;SDS011;51349;52.424;10.840;2023-12-07T05:01:59;29.00;;;17.17;;
64868;SDS011;51349;52.424;10.840;2023-12-07T05:07:00;28.40;;;16.80;;
64868;SDS011;51349;52.424;10.840;2023-12-07T05:12:03;33.07;;;17.40;;
64868;SDS011;51349;52.424;10.840;2023-12-07T05:17:05;29.00;;;17.63;;
64868;SDS011;51349;52.424;10.840;2023-12-07T05:22:05;29.50;;;16.30;;
64868;SDS011;51349;52.424;10.840;2023-12-07T05:27:06;25.93;;;16.03;;
64868;SDS011;51349;52.424;10.840;2023-12-07T05:32:07;28.57;;;17.30;;
64868;SDS011;51349;52.424;10.840;2023-12-07T05:37:08;28.30;;;16.73;;
64868;SDS011;51349;52.424;10.840;2023-12-07T05:42:08;28.33;;;17.10;;
64868;SDS011;51349;52.424;10.840;2023-12-07T05:47:09;26.23;;;17.17;;
64868;SDS011;51349;52.424;10.840;2023-12-07T05:52:10;28.87;;;16.10;;
64868;SDS011;51349;52.424;10.840;2023-12-07T05:57:10;26.63;;;15.23;;
64868;SDS011;51349;52.424;10.840;2023-12-07T06:02:11;29.17;;;16.27;;
64868;SDS011;51349;52.424;10.840;2023-12-07T06:07:12;30.50;;;17.23;;
64868;SDS011;51349;52.424;10.840;2023-12-07T06:12:12;37.57;;;19.63;;
64868;SDS011;51349;52.424;10.840;2023-12-07T06:17:13;29.87;;;16.80;;
64868;SDS011;51349;52.424;10.840;2023-12-07T06:22:14;29.10;;;16.67;;
64868;SDS011;51349;52.424;10.840;2023-12-07T06:27:15;24.83;;;15.43;;
64868;SDS011;51349;52.424;10.840;2023-12-07T06:32:15;30.00;;;17.20;;
64868;SDS011;51349;52.424;10.840;2023-12-07T06:37:17;28.37;;;16.33;;
64868;SDS011;51349;52.424;10.840;2023-12-07T06:42:17;25.93;;;15.60;;
64868;SDS011;51349;52.424;10.840;2023-12-07T06:47:18;25.13;;;15.53;;
64868;SDS011;51349;52.424;10.840;2023-12-07T06:52:19;26.23;;;15.03;;
64868;SDS011;51349;52.424;10.840;2023-12-07T06:57:20;27.50;;;15.90;;
64868;SDS011;51349;52.424;10.840;2023-12-07T07:02:21;23.40;;;14.53;;
64868;SDS011;51349;52.424;10.840;2023-12-07T07:07:23;24.87;;;15.40;;
64868;SDS011;51349;52.424;10.840;2023-12-07T07:12:23;25.43;;;15.57;;
64868;SDS011;51349;52.424;10.840;2023-12-07T07:17:24;27.60;;;15.93;;
64868;SDS011;51349;52.424;10.840;2023-12-07T07:22:25;26.67;;;15.00;;
64868;SDS011;51349;52.424;10.840;2023-12-07T07:27:26;27.30;;;15.13;;
64868;SDS011;51349;52.424;10.840;2023-12-07T07:32:27;26.37;;;14.63;;
64868;SDS011;51349;52.424;10.840;2023-12-07T07:37:27;21.70;;;14.10;;
64868;SDS011;51349;52.424;10.840;2023-12-07T07:42:28;26.07;;;15.27;;
64868;SDS011;51349;52.424;10.840;2023-12-07T07:47:29;22.47;;;14.23;;
64868;SDS011;51349;52.424;10.840;2023-12-07T07:52:31;23.07;;;14.17;;
64868;SDS011;51349;52.424;10.840;2023-12-07T07:57:33;26.77;;;16.00;;
64868;SDS011;51349;52.424;10.840;2023-12-07T08:02:34;26.37;;;15.70;;
64868;SDS011;51349;52.424;10.840;2023-12-07T08:07:36;24.03;;;14.77;;
64868;SDS011;51349;52.424;10.840;2023-12-07T08:12:39;25.33;;;15.70;;
64868;SDS011;51349;52.424;10.840;2023-12-07T08:17:40;25.57;;;15.40;;
64868;SDS011;51349;52.424;10.840;2023-12-07T08:22:41;28.43;;;16.20;;
64868;SDS011;51349;52.424;10.840;2023-12-07T08:27:43;29.50;;;17.17;;
64868;SDS011;51349;52.424;10.840;2023-12-07T08:32:47;31.00;;;15.63;;
64868;SDS011;51349;52.424;10.840;2023-12-07T08:37:48;26.00;;;15.97;;
64868;SDS011;51349;52.424;10.840;2023-12-07T08:42:48;25.37;;;15.53;;
64868;SDS011;51349;52.424;10.840;2023-12-07T08:47:49;23.83;;;15.10;;
64868;SDS011;51349;52.424;10.840;2023-12-07T08:52:50;26.97;;;16.17;;
64868;SDS011;51349;52.424;10.840;2023-12-07T08:57:52;26.43;;;16.03;;
64868;SDS011;51349;52.424;10.840;2023-12-07T09:02:53;26.17;;;16.20;;
64868;SDS011;51349;52.424;10.840;2023-12-07T09:07:54;25.37;;;15.83;;
64868;SDS011;51349;52.424;10.840;2023-12-07T09:12:56;28.63;;;17.13;;
64868;SDS011;51349;52.424;10.840;2023-12-07T09:17:57;26.07;;;16.40;;
64868;SDS011;51349;52.424;10.840;2023-12-07T09:22:57;25.17;;;15.73;;
64868;SDS011;51349;52.424;10.840;2023-12-07T09:27:58;25.23;;;16.07;;
64868;SDS011;51349;52.424;10.840;2023-12-07T09:32:59;26.03;;;16.07;;
64868;SDS011;51349;52.424;10.840;2023-12-07T09:38:03;24.23;;;15.53;;
64868;SDS011;51349;52.424;10.840;2023-12-07T09:43:04;22.77;;;13.37;;
64868;SDS011;51349;52.424;10.840;2023-12-07T09:48:04;24.53;;;15.50;;
64868;SDS011;51349;52.424;10.840;2023-12-07T09:53:07;26.57;;;14.93;;
64868;SDS011;51349;52.424;10.840;2023-12-07T09:58:08;26.20;;;15.07;;
64868;SDS011;51349;52.424;10.840;2023-12-07T10:03:09;26.10;;;15.30;;
64868;SDS011;51349;52.424;10.840;2023-12-07T10:08:28;24.97;;;16.00;;
64868;SDS011;51349;52.424;10.840;2023-12-07T10:13:30;26.10;;;15.37;;
64868;SDS011;51349;52.424;10.840;2023-12-07T10:18:32;24.07;;;15.20;;
64868;SDS011;51349;52.424;10.840;2023-12-07T10:23:33;26.70;;;16.03;;
64868;SDS011;51349;52.424;10.840;2023-12-07T10:28:34;21.50;;;13.77;;
64868;SDS011;51349;52.424;10.840;2023-12-07T10:33:38;24.27;;;14.33;;
64868;SDS011;51349;52.424;10.840;2023-12-07T10:38:39;24.67;;;15.20;;
64868;SDS011;51349;52.424;10.840;2023-12-07T10:43:45;23.07;;;14.63;;
64868;SDS011;51349;52.424;10.840;2023-12-07T10:49:03;23.20;;;14.37;;
64868;SDS011;51349;52.424;10.840;2023-12-07T10:54:06;23.27;;;13.90;;
64868;SDS011;51349;52.424;10.840;2023-12-07T10:59:12;24.17;;;15.30;;
64868;SDS011;51349;52.424;10.840;2023-12-07T11:04:13;21.87;;;13.80;;
64868;SDS011;51349;52.424;10.840;2023-12-07T11:09:16;22.60;;;14.13;;
64868;SDS011;51349;52.424;10.840;2023-12-07T11:14:23;21.40;;;14.40;;
64868;SDS011;51349;52.424;10.840;2023-12-07T11:24:53;22.73;;;13.00;;
64868;SDS011;51349;52.424;10.840;2023-12-07T11:29:57;19.53;;;12.83;;
64868;SDS011;51349;52.424;10.840;2023-12-07T11:35:03;21.63;;;13.77;;
64868;SDS011;51349;52.424;10.840;2023-12-07T11:40:05;25.00;;;14.57;;
64868;SDS011;51349;52.424;10.840;2023-12-07T11:45:06;20.93;;;14.07;;
64868;SDS011;51349;52.424;10.840;2023-12-07T11:50:08;23.83;;;14.23;;
64868;SDS011;51349;52.424;10.840;2023-12-07T11:55:09;25.30;;;13.93;;
64868;SDS011;51349;52.424;10.840;2023-12-07T12:00:12;20.60;;;13.67;;
64868;SDS011;51349;52.424;10.840;2023-12-07T12:05:14;19.27;;;12.93;;
64868;SDS011;51349;52.424;10.840;2023-12-07T12:10:14;19.17;;;12.43;;
64868;SDS011;51349;52.424;10.840;2023-12-07T12:15:15;23.00;;;13.57;;
64868;SDS011;51349;52.424;10.840;2023-12-07T12:20:16;20.57;;;13.37;;
64868;SDS011;51349;52.424;10.840;2023-12-07T12:25:17;20.33;;;13.27;;
64868;SDS011;51349;52.424;10.840;2023-12-07T12:30:18;19.87;;;13.20;;
64868;SDS011;51349;52.424;10.840;2023-12-07T12:35:19;20.67;;;12.20;;
64868;SDS011;51349;52.424;10.840;2023-12-07T12:40:21;21.50;;;13.53;;
64868;SDS011;51349;52.424;10.840;2023-12-07T12:45:23;19.50;;;12.70;;
64868;SDS011;51349;52.424;10.840;2023-12-07T12:55:39;18.50;;;13.20;;
64868;SDS011;51349;52.424;10.840;2023-12-07T13:00:41;18.03;;;11.77;;
64868;SDS011;51349;52.424;10.840;2023-12-07T13:05:44;18.70;;;12.17;;
64868;SDS011;51349;52.424;10.840;2023-12-07T13:10:45;18.83;;;11.40;;
64868;SDS011;51349;52.424;10.840;2023-12-07T13:15:46;16.47;;;11.97;;
64868;SDS011;51349;52.424;10.840;2023-12-07T13:20:46;15.80;;;10.87;;
64868;SDS011;51349;52.424;10.840;2023-12-07T13:25:47;19.87;;;11.83;;
64868;SDS011;51349;52.424;10.840;2023-12-07T13:30:48;17.97;;;11.73;;
64868;SDS011;51349;52.424;10.840;2023-12-07T13:35:49;18.07;;;11.33;;
64868;SDS011;51349;52.424;10.840;2023-12-07T13:40:50;18.20;;;10.33;;
64868;SDS011;51349;52.424;10.840;2023-12-07T13:45:51;14.27;;;10.67;;
64868;SDS011;51349;52.424;10.840;2023-12-07T13:50:52;15.00;;;10.53;;
64868;SDS011;51349;52.424;10.840;2023-12-07T13:55:52;17.47;;;12.03;;
64868;SDS011;51349;52.424;10.840;2023-12-07T14:00:53;14.80;;;10.93;;
64868;SDS011;51349;52.424;10.840;2023-12-07T14:05:54;17.60;;;11.77;;
64868;SDS011;51349;52.424;10.840;2023-12-07T14:10:55;17.60;;;11.73;;
64868;SDS011;51349;52.424;10.840;2023-12-07T14:15:56;16.13;;;11.30;;
64868;SDS011;51349;52.424;10.840;2023-12-07T14:20:57;22.83;;;13.73;;
64868;SDS011;51349;52.424;10.840;2023-12-07T14:25:58;18.37;;;11.87;;
64868;SDS011;51349;52.424;10.840;2023-12-07T14:30:59;16.80;;;12.13;;
64868;SDS011;51349;52.424;10.840;2023-12-07T14:36:00;19.23;;;12.57;;
64868;SDS011;51349;52.424;10.840;2023-12-07T14:41:00;20.60;;;12.77;;
64868;SDS011;51349;52.424;10.840;2023-12-07T14:46:01;20.77;;;12.77;;
64868;SDS011;51349;52.424;10.840;2023-12-07T14:51:02;17.80;;;11.93;;
64868;SDS011;51349;52.424;10.840;2023-12-07T14:56:03;18.10;;;12.27;;
64868;SDS011;51349;52.424;10.840;2023-12-07T15:01:04;18.10;;;12.70;;
64868;SDS011;51349;52.424;10.840;2023-12-07T15:06:08;17.50;;;12.03;;
64868;SDS011;51349;52.424;10.840;2023-12-07T15:11:09;20.93;;;12.30;;
64868;SDS011;51349;52.424;10.840;2023-12-07T15:16:10;24.07;;;12.03;;
64868;SDS011;51349;52.424;10.840;2023-12-07T15:21:14;19.67;;;11.60;;
64868;SDS011;51349;52.424;10.840;2023-12-07T15:26:15;16.27;;;10.83;;
64868;SDS011;51349;52.424;10.840;2023-12-07T15:31:16;17.90;;;12.00;;
64868;SDS011;51349;52.424;10.840;2023-12-07T15:36:17;17.67;;;11.60;;
64868;SDS011;51349;52.424;10.840;2023-12-07T15:41:18;16.87;;;11.57;;
64868;SDS011;51349;52.424;10.840;2023-12-07T15:46:18;15.77;;;11.77;;
64868;SDS011;51349;52.424;10.840;2023-12-07T15:51:20;16.40;;;10.83;;
64868;SDS011;51349;52.424;10.840;2023-12-07T15:56:21;20.13;;;12.23;;
64868;SDS011;51349;52.424;10.840;2023-12-07T16:01:22;23.67;;;14.00;;
64868;SDS011;51349;52.424;10.840;2023-12-07T16:06:23;17.17;;;11.17;;
64868;SDS011;51349;52.424;10.840;2023-12-07T16:11:23;17.77;;;11.50;;
64868;SDS011;51349;52.424;10.840;2023-12-07T16:16:24;16.07;;;11.30;;
64868;SDS011;51349;52.424;10.840;2023-12-07T16:21:25;18.03;;;11.37;;
64868;SDS011;51349;52.424;10.840;2023-12-07T16:26:25;17.57;;;11.37;;
64868;SDS011;51349;52.424;10.840;2023-12-07T16:31:26;16.03;;;11.00;;
64868;SDS011;51349;52.424;10.840;2023-12-07T16:36:28;15.83;;;10.70;;
64868;SDS011;51349;52.424;10.840;2023-12-07T16:41:29;19.23;;;12.37;;
64868;SDS011;51349;52.424;10.840;2023-12-07T16:46:32;18.03;;;12.00;;
64868;SDS011;51349;52.424;10.840;2023-12-07T16:51:33;15.80;;;11.50;;
64868;SDS011;51349;52.424;10.840;2023-12-07T16:56:33;14.40;;;9.80;;
64868;SDS011;51349;52.424;10.840;2023-12-07T17:01:34;18.80;;;12.60;;
64868;SDS011;51349;52.424;10.840;2023-12-07T17:06:35;20.50;;;14.03;;
64868;SDS011;51349;52.424;10.840;2023-12-07T17:11:40;16.00;;;10.47;;
64868;SDS011;51349;52.424;10.840;2023-12-07T17:16:41;15.60;;;10.53;;
64868;SDS011;51349;52.424;10.840;2023-12-07T17:21:41;17.33;;;10.70;;
64868;SDS011;51349;52.424;10.840;2023-12-07T17:26:42;14.90;;;9.73;;
64868;SDS011;51349;52.424;10.840;2023-12-07T17:31:43;15.10;;;10.33;;
64868;SDS011;51349;52.424;10.840;2023-12-07T17:36:44;14.47;;;10.87;;
64868;SDS011;51349;52.424;10.840;2023-12-07T17:41:45;15.57;;;11.40;;
64868;SDS011;51349;52.424;10.840;2023-12-07T17:46:46;12.50;;;9.50;;
64868;SDS011;51349;52.424;10.840;2023-12-07T17:51:47;14.57;;;9.90;;
64868;SDS011;51349;52.424;10.840;2023-12-07T17:56:47;12.97;;;9.10;;
64868;SDS011;51349;52.424;10.840;2023-12-07T18:01:48;15.97;;;9.97;;
64868;SDS011;51349;52.424;10.840;2023-12-07T18:06:49;11.63;;;8.77;;
64868;SDS011;51349;52.424;10.840;2023-12-07T18:11:50;13.97;;;9.20;;
64868;SDS011;51349;52.424;10.840;2023-12-07T18:16:51;14.60;;;10.07;;
64868;SDS011;51349;52.424;10.840;2023-12-07T18:21:51;18.40;;;13.23;;
64868;SDS011;51349;52.424;10.840;2023-12-07T18:26:53;19.53;;;13.37;;
64868;SDS011;51349;52.424;10.840;2023-12-07T18:31:54;20.57;;;13.53;;
64868;SDS011;51349;52.424;10.840;2023-12-07T18:36:54;16.33;;;12.17;;
64868;SDS011;51349;52.424;10.840;2023-12-07T18:41:55;16.50;;;12.20;;
64868;SDS011;51349;52.424;10.840;2023-12-07T18:46:56;13.80;;;9.23;;
64868;SDS011;51349;52.424;10.840;2023-12-07T18:51:57;11.37;;;9.73;;
64868;SDS011;51349;52.424;10.840;2023-12-07T18:56:58;16.53;;;11.43;;
64868;SDS011;51349;52.424;10.840;2023-12-07T19:02:01;11.40;;;8.73;;
64868;SDS011;51349;52.424;10.840;2023-12-07T19:07:01;8.73;;;7.83;;
64868;SDS011;51349;52.424;10.840;2023-12-07T19:12:02;15.13;;;10.23;;
64868;SDS011;51349;52.424;10.840;2023-12-07T19:17:03;15.77;;;10.40;;
64868;SDS011;51349;52.424;10.840;2023-12-07T19:22:04;16.00;;;10.10;;
64868;SDS011;51349;52.424;10.840;2023-12-07T19:27:05;10.50;;;8.30;;
64868;SDS011;51349;52.424;10.840;2023-12-07T19:32:06;12.10;;;9.10;;
64868;SDS011;51349;52.424;10.840;2023-12-07T19:37:06;16.27;;;10.10;;
64868;SDS011;51349;52.424;10.840;2023-12-07T19:42:08;13.30;;;9.27;;
64868;SDS011;51349;52.424;10.840;2023-12-07T19:47:08;11.83;;;8.67;;
64868;SDS011;51349;52.424;10.840;2023-12-07T19:52:09;12.70;;;8.53;;
64868;SDS011;51349;52.424;10.840;2023-12-07T19:57:11;17.27;;;10.50;;
64868;SDS011;51349;52.424;10.840;2023-12-07T20:02:12;18.30;;;11.23;;
64868;SDS011;51349;52.424;10.840;2023-12-07T20:07:12;16.17;;;10.30;;
64868;SDS011;51349;52.424;10.840;2023-12-07T20:12:13;20.30;;;11.20;;
64868;SDS011;51349;52.424;10.840;2023-12-07T20:17:14;15.50;;;9.83;;
64868;SDS011;51349;52.424;10.840;2023-12-07T20:22:16;10.37;;;7.93;;
64868;SDS011;51349;52.424;10.840;2023-12-07T20:27:19;10.03;;;7.53;;
64868;SDS011;51349;52.424;10.840;2023-12-07T20:32:20;13.40;;;8.53;;
64868;SDS011;51349;52.424;10.840;2023-12-07T20:37:21;22.00;;;14.10;;
64868;SDS011;51349;52.424;10.840;2023-12-07T20:42:22;14.47;;;10.87;;
64868;SDS011;51349;52.424;10.840;2023-12-07T20:47:23;13.10;;;9.80;;
64868;SDS011;51349;52.424;10.840;2023-12-07T20:52:23;11.67;;;9.33;;
64868;SDS011;51349;52.424;10.840;2023-12-07T20:57:25;11.13;;;7.77;;
64868;SDS011;51349;52.424;10.840;2023-12-07T21:02:26;10.23;;;7.80;;
64868;SDS011;51349;52.424;10.840;2023-12-07T21:07:26;10.47;;;8.43;;
64868;SDS011;51349;52.424;10.840;2023-12-07T21:12:27;10.27;;;7.33;;
64868;SDS011;51349;52.424;10.840;2023-12-07T21:17:28;8.43;;;6.40;;
64868;SDS011;51349;52.424;10.840;2023-12-07T21:22:29;6.37;;;5.23;;
64868;SDS011;51349;52.424;10.840;2023-12-07T21:27:31;9.67;;;6.70;;
64868;SDS011;51349;52.424;10.840;2023-12-07T21:32:31;7.10;;;6.03;;
64868;SDS011;51349;52.424;10.840;2023-12-07T21:37:32;7.90;;;6.10;;
64868;SDS011;51349;52.424;10.840;2023-12-07T21:42:33;6.90;;;5.80;;
64868;SDS011;51349;52.424;10.840;2023-12-07T21:47:33;8.17;;;5.47;;
64868;SDS011;51349;52.424;10.840;2023-12-07T21:52:34;6.53;;;5.27;;
64868;SDS011;51349;52.424;10.840;2023-12-07T21:57:35;8.80;;;5.93;;
64868;SDS011;51349;52.424;10.840;2023-12-07T22:02:36;6.37;;;5.63;;
64868;SDS011;51349;52.424;10.840;2023-12-07T22:07:36;8.03;;;5.50;;
64868;SDS011;51349;52.424;10.840;2023-12-07T22:12:37;6.43;;;5.20;;
64868;SDS011;51349;52.424;10.840;2023-12-07T22:17:38;8.07;;;5.90;;
64868;SDS011;51349;52.424;10.840;2023-12-07T22:22:40;7.87;;;5.43;;
64868;SDS011;51349;52.424;10.840;2023-12-07T22:27:41;7.10;;;5.53;;
64868;SDS011;51349;52.424;10.840;2023-12-07T22:32:42;6.73;;;5.63;;
64868;SDS011;51349;52.424;10.840;2023-12-07T22:37:43;6.80;;;5.27;;
64868;SDS011;51349;52.424;10.840;2023-12-07T22:42:44;6.70;;;5.10;;
64868;SDS011;51349;52.424;10.840;2023-12-07T22:47:45;6.30;;;5.17;;
64868;SDS011;51349;52.424;10.840;2023-12-07T22:52:46;7.13;;;5.27;;
64868;SDS011;51349;52.424;10.840;2023-12-07T22:57:46;7.60;;;5.53;;
64868;SDS011;51349;52.424;10.840;2023-12-07T23:02:47;6.70;;;5.23;;
64868;SDS011;51349;52.424;10.840;2023-12-07T23:07:48;7.37;;;5.50;;
64868;SDS011;51349;52.424;10.840;2023-12-07T23:12:48;8.80;;;6.27;;
64868;SDS011;51349;52.424;10.840;2023-12-07T23:17:49;7.50;;;5.07;;
64868;SDS011;51349;52.424;10.840;2023-12-07T23:22:50;8.50;;;6.20;;
64868;SDS011;51349;52.424;10.840;2023-12-07T23:27:51;11.90;;;7.00;;
64868;SDS011;51349;52.424;10.840;2023-12-07T23:32:51;12.50;;;7.07;;
64868;SDS011;51349;52.424;10.840;2023-12-07T23:37:52;9.83;;;6.60;;
64868;SDS011;51349;52.424;10.840;2023-12-07T23:42:53;9.73;;;6.53;;
64868;SDS011;51349;52.424;10.840;2023-12-07T23:47:53;11.47;;;7.97;;
64868;SDS011;51349;52.424;10.840;2023-12-07T23:52:54;11.70;;;7.67;;
64868;SDS011;51349;52.424;10.840;2023-12-07T23:57:55;13.90;;;8.20;;
